Time;durP1;ratioP1;P1;durP2;ratioP2;P2;SDS_P1;SDS_P2;PMS_P1;PMS_P2;Temp;Humidity;BMP_temperature;BMP_pressure;BME280_temperature;BME280_humidity;BME280_pressure;Samples;Min_cycle;Max_cycle;Signal;HPM_P1;HPM_P2
2024/04/22 00:01:58;;;;;;;0.60;0.60;;;;;;;3.61;62.41;92138.44;4923110;29;20159;-74
2024/04/22 00:04:24;;;;;;;0.50;0.50;;;;;;;3.60;63.62;92132.44;4896345;29;20367;-74
2024/04/22 00:06:50;;;;;;;0.57;0.57;;;;;;;3.61;64.64;92134.03;4923965;29;20014;-75
2024/04/22 00:09:16;;;;;;;0.95;0.65;;;;;;;3.55;66.85;92140.19;4923198;29;20014;-75
2024/04/22 00:11:42;;;;;;;0.60;0.60;;;;;;;3.50;67.28;92140.19;4922510;29;20014;-75
2024/04/22 00:14:11;;;;;;;0.60;0.60;;;;;;;3.47;67.85;92138.88;4929738;29;20006;-75
2024/04/22 00:16:39;;;;;;;0.65;0.65;;;;;;;3.43;71.95;92153.34;4922596;29;20018;-74
2024/04/22 00:19:04;;;;;;;1.10;0.88;;;;;;;3.43;71.38;92152.56;4923297;29;20017;-75
2024/04/22 00:21:30;;;;;;;0.60;0.60;;;;;;;3.42;71.47;92161.34;4896929;29;20007;-75
2024/04/22 00:23:56;;;;;;;0.60;0.60;;;;;;;3.41;69.79;92155.41;4923084;29;20021;-75
2024/04/22 00:26:21;;;;;;;2.20;0.73;;;;;;;3.37;66.63;92158.72;4922523;29;20412;-75
2024/04/22 00:28:47;;;;;;;0.80;0.80;;;;;;;3.32;67.52;92162.84;4922463;29;20029;-75
2024/04/22 00:31:12;;;;;;;1.05;0.70;;;;;;;3.33;69.09;92166.19;4922165;29;20376;-75
2024/04/22 00:33:38;;;;;;;0.80;0.68;;;;;;;3.35;67.25;92151.22;4922837;29;20014;-75
2024/04/22 00:36:04;;;;;;;0.60;0.60;;;;;;;3.36;64.01;92159.78;4922216;29;20014;-75
2024/04/22 00:38:30;;;;;;;0.82;0.70;;;;;;;3.36;70.65;92152.00;4922504;29;20644;-75
2024/04/22 00:40:56;;;;;;;0.85;0.60;;;;;;;3.34;72.38;92142.66;4922648;29;20099;-75
2024/04/22 00:43:22;;;;;;;0.60;0.60;;;;;;;3.39;70.60;92154.09;4896745;29;20025;-75
2024/04/22 00:45:47;;;;;;;0.50;0.50;;;;;;;3.36;70.22;92142.44;4921279;29;20440;-75
2024/04/22 00:48:16;;;;;;;0.65;0.63;;;;;;;3.36;69.22;92145.03;4922635;29;20014;-75
2024/04/22 00:50:42;;;;;;;0.50;0.50;;;;;;;3.46;67.32;92152.06;4922988;29;20556;-75
2024/04/22 00:53:11;;;;;;;0.50;0.50;;;;;;;3.30;81.68;92162.31;4922641;29;20010;-75
2024/04/22 00:55:39;;;;;;;0.50;0.50;;;;;;;3.03;92.63;92149.44;4928682;29;20013;-74
2024/04/22 00:58:06;;;;;;;0.98;0.95;;;;;;;2.89;94.49;92163.81;4923595;29;20026;-74
2024/04/22 01:00:34;;;;;;;0.70;0.70;;;;;;;2.86;98.28;92159.13;4896258;29;20017;-74
2024/04/22 01:03:01;;;;;;;0.50;0.50;;;;;;;2.78;97.69;92162.19;4922401;29;20021;-74
2024/04/22 01:05:27;;;;;;;0.50;0.50;;;;;;;2.66;100.00;92152.00;4922406;29;20014;-74
2024/04/22 01:07:54;;;;;;;1.25;0.70;;;;;;;2.58;100.00;92158.38;4922545;29;20093;-75
2024/04/22 01:10:20;;;;;;;0.70;0.70;;;;;;;2.47;100.00;92161.91;4921859;29;20024;-74
2024/04/22 01:12:46;;;;;;;1.00;0.70;;;;;;;2.35;100.00;92161.28;4919883;29;20403;-74
2024/04/22 01:15:12;;;;;;;0.75;0.70;;;;;;;2.38;100.00;92158.19;4896083;29;20513;-74
2024/04/22 01:17:39;;;;;;;0.60;0.60;;;;;;;2.20;100.00;92152.34;4920739;29;20022;-74
2024/04/22 01:20:08;;;;;;;0.68;0.68;;;;;;;2.12;100.00;92145.03;4912805;29;20017;-73
2024/04/22 01:22:35;;;;;;;0.63;0.63;;;;;;;2.06;100.00;92140.84;4922265;29;20014;-74
2024/04/22 01:25:04;;;;;;;0.60;0.60;;;;;;;1.94;100.00;92128.06;4922417;29;20553;-74
2024/04/22 01:27:32;;;;;;;2.25;0.70;;;;;;;1.87;100.00;92127.47;4929513;29;20088;-74
2024/04/22 01:29:58;;;;;;;0.70;0.70;;;;;;;1.84;100.00;92118.38;4922078;29;20013;-74
2024/04/22 01:32:24;;;;;;;0.68;0.60;;;;;;;1.77;100.00;92120.38;4922254;29;20028;-74
2024/04/22 01:34:56;;;;;;;0.70;0.70;;;;;;;1.74;100.00;92118.28;4922326;29;20010;-74
2024/04/22 01:37:21;;;;;;;0.70;0.70;;;;;;;1.75;100.00;92116.47;4921353;29;20010;-74
2024/04/22 01:39:47;;;;;;;0.70;0.70;;;;;;;1.74;100.00;92109.78;4921825;29;20028;-74
2024/04/22 01:42:13;;;;;;;0.65;0.65;;;;;;;1.70;100.00;92106.09;4922431;29;20014;-75
2024/04/22 01:44:38;;;;;;;1.98;0.70;;;;;;;1.70;100.00;92101.72;4922344;29;20021;-75
2024/04/22 01:47:04;;;;;;;2.05;0.70;;;;;;;1.73;100.00;92100.44;4918418;29;20017;-75
2024/04/22 01:49:30;;;;;;;0.55;0.55;;;;;;;1.76;100.00;92103.34;4922088;29;20581;-74
2024/04/22 01:51:55;;;;;;;1.75;0.75;;;;;;;1.76;100.00;92100.75;4895956;29;20021;-74
2024/04/22 01:54:21;;;;;;;1.13;0.90;;;;;;;1.81;100.00;92093.06;4921450;29;20013;-74
2024/04/22 01:56:49;;;;;;;0.65;0.65;;;;;;;1.87;100.00;92086.94;4895752;29;20021;-74
2024/04/22 01:59:14;;;;;;;0.55;0.55;;;;;;;1.92;100.00;92093.19;4895447;29;20478;-74
2024/04/22 02:01:41;;;;;;;2.25;0.90;;;;;;;1.95;100.00;92096.06;4922104;29;20014;-74
2024/04/22 02:04:06;;;;;;;1.52;0.77;;;;;;;2.01;100.00;92087.34;4921983;29;20099;-74
2024/04/22 02:06:32;;;;;;;0.63;0.60;;;;;;;2.09;100.00;92083.53;4921367;29;20021;-75
2024/04/22 02:08:57;;;;;;;0.70;0.60;;;;;;;2.10;100.00;92084.34;4921520;29;20114;-74
2024/04/22 02:11:23;;;;;;;0.63;0.63;;;;;;;2.17;100.00;92090.06;4920250;29;20359;-75
2024/04/22 02:13:49;;;;;;;0.70;0.60;;;;;;;2.16;100.00;92080.75;4920636;29;20024;-75
2024/04/22 02:16:14;;;;;;;1.27;0.70;;;;;;;2.21;100.00;92068.69;4921796;29;20085;-74
2024/04/22 02:18:40;;;;;;;0.70;0.70;;;;;;;2.19;100.00;92073.31;4921845;29;20026;-74
2024/04/22 02:21:05;;;;;;;0.73;0.70;;;;;;;2.17;100.00;92070.19;4921218;29;20018;-75
2024/04/22 02:23:31;;;;;;;2.28;0.60;;;;;;;2.26;100.00;92068.72;4921615;29;20010;-74
2024/04/22 02:25:56;;;;;;;0.60;0.60;;;;;;;2.31;100.00;92069.78;4920643;29;20460;-75
2024/04/22 02:28:23;;;;;;;0.73;0.60;;;;;;;2.40;92.11;92068.31;4920742;29;20029;-74
2024/04/22 02:30:48;;;;;;;0.60;0.60;;;;;;;2.32;95.99;92061.81;4923103;29;20010;-74
2024/04/22 02:33:14;;;;;;;0.60;0.60;;;;;;;2.44;93.65;92059.81;4925466;28;20362;-74
2024/04/22 02:35:40;;;;;;;2.22;0.90;;;;;;;2.37;96.31;92063.66;4927717;29;20017;-74
2024/04/22 02:38:06;;;;;;;0.63;0.63;;;;;;;2.30;93.12;92058.69;4921788;29;20006;-74
2024/04/22 02:40:31;;;;;;;0.85;0.73;;;;;;;2.35;91.91;92050.19;4924584;29;20025;-74
2024/04/22 02:42:57;;;;;;;0.68;0.68;;;;;;;2.25;95.76;92043.94;4924186;29;20025;-74
2024/04/22 02:45:24;;;;;;;3.30;0.70;;;;;;;2.31;95.63;92043.97;4897578;29;20096;-75
2024/04/22 02:47:50;;;;;;;1.05;0.57;;;;;;;2.33;97.48;92047.84;4897074;29;20014;-74
2024/04/22 02:50:16;;;;;;;1.48;0.70;;;;;;;2.26;100.00;92042.88;4922903;29;20488;-74
2024/04/22 02:52:42;;;;;;;0.73;0.60;;;;;;;2.26;98.53;92032.56;4923991;29;20013;-75
2024/04/22 02:55:09;;;;;;;1.13;0.68;;;;;;;2.22;98.83;92026.31;4923926;29;20010;-74
2024/04/22 02:57:35;;;;;;;0.95;0.70;;;;;;;2.27;96.43;92025.59;4923813;29;20010;-74
2024/04/22 03:00:00;;;;;;;0.88;0.82;;;;;;;2.24;99.14;92011.38;4923557;29;20127;-74
2024/04/22 03:02:26;;;;;;;0.70;0.70;;;;;;;2.22;99.05;92013.41;4923668;29;20069;-75
2024/04/22 03:04:51;;;;;;;0.73;0.60;;;;;;;2.34;93.96;92009.88;4925445;29;20010;-75
2024/04/22 03:07:17;;;;;;;0.60;0.60;;;;;;;2.33;90.86;92013.50;4929668;29;20026;-74
2024/04/22 03:09:44;;;;;;;0.65;0.65;;;;;;;2.26;92.22;92017.06;4924033;29;20046;-75
2024/04/22 03:12:10;;;;;;;3.53;0.95;;;;;;;2.26;91.78;92006.72;4923187;29;20540;-75
2024/04/22 03:14:36;;;;;;;0.70;0.70;;;;;;;2.28;85.94;92007.28;4923303;29;20025;-75
2024/04/22 03:17:01;;;;;;;0.50;0.50;;;;;;;2.36;90.09;92005.25;4921453;29;20014;-75
2024/04/22 03:19:27;;;;;;;0.63;0.63;;;;;;;2.39;95.62;91997.03;4900588;29;20062;-75
2024/04/22 03:21:53;;;;;;;0.68;0.68;;;;;;;2.38;98.55;92001.38;4923241;29;20047;-75
2024/04/22 03:24:18;;;;;;;0.50;0.50;;;;;;;2.41;97.39;92002.69;4923572;29;20006;-74
2024/04/22 03:26:44;;;;;;;0.68;0.65;;;;;;;2.43;95.75;92001.44;4897566;29;20062;-74
2024/04/22 03:29:10;;;;;;;1.27;0.80;;;;;;;2.36;96.26;91997.50;4897542;29;20013;-75
2024/04/22 03:31:36;;;;;;;0.50;0.50;;;;;;;2.33;92.66;91996.19;4928875;29;20504;-74
2024/04/22 03:34:01;;;;;;;0.55;0.55;;;;;;;2.39;97.15;91994.44;4876970;29;20025;-74
2024/04/22 03:36:27;;;;;;;0.60;0.60;;;;;;;2.35;94.21;91993.38;4897363;29;20029;-75
2024/04/22 03:38:53;;;;;;;1.15;0.77;;;;;;;2.32;92.12;91988.69;4923466;29;20124;-75
2024/04/22 03:41:18;;;;;;;1.13;0.73;;;;;;;2.31;96.43;91995.66;4923644;29;20014;-74
2024/04/22 03:43:44;;;;;;;2.58;0.80;;;;;;;2.35;97.53;91994.16;4934864;29;20025;-74
2024/04/22 03:51:38;;;;;;;1.20;0.70;;;;;;;2.39;95.42;91990.03;4923408;29;20024;-75
2024/04/22 03:54:04;;;;;;;0.80;0.70;;;;;;;2.42;97.66;91993.94;4922579;29;20361;-75
2024/04/22 03:56:30;;;;;;;2.88;0.75;;;;;;;2.37;96.10;91986.16;4923019;29;20021;-75
2024/04/22 03:58:55;;;;;;;0.70;0.70;;;;;;;2.40;92.40;91978.69;4923504;29;20345;-75
2024/04/22 04:01:21;;;;;;;0.60;0.60;;;;;;;2.25;88.61;91986.31;4896689;29;20584;-75
2024/04/22 04:03:46;;;;;;;0.68;0.68;;;;;;;2.31;89.84;91989.72;4922436;29;20109;-75
2024/04/22 04:06:12;;;;;;;0.70;0.70;;;;;;;2.24;90.63;91985.53;4922921;29;20054;-74
2024/04/22 04:08:38;;;;;;;1.00;0.75;;;;;;;2.28;92.67;91978.84;4923194;29;20482;-75
2024/04/22 04:11:12;;;;;;;0.60;0.60;;;;;;;2.28;92.21;91989.19;4922675;29;20472;-75
2024/04/22 04:13:40;;;;;;;0.75;0.70;;;;;;;2.31;86.99;91974.22;4922174;29;20021;-75
2024/04/22 04:16:09;;;;;;;0.77;0.70;;;;;;;2.38;82.78;91969.63;4896653;29;20010;-73
2024/04/22 04:18:36;;;;;;;0.95;0.60;;;;;;;2.38;82.40;91975.56;4923279;29;20463;-74
2024/04/22 04:21:02;;;;;;;0.60;0.60;;;;;;;2.42;79.93;91975.84;4897228;29;20033;-74
2024/04/22 04:23:28;;;;;;;0.60;0.60;;;;;;;2.44;79.10;91976.38;4917280;29;20042;-75
2024/04/22 04:25:53;;;;;;;1.15;0.85;;;;;;;2.67;80.44;91980.41;4918840;29;20014;-74
2024/04/22 04:28:19;;;;;;;0.98;0.73;;;;;;;2.47;84.42;91971.47;4896101;29;20010;-73
2024/04/22 04:31:01;;;;;;;0.70;0.70;;;;;;;2.45;80.20;91972.75;4923060;29;20096;-75
2024/04/22 04:33:27;;;;;;;;;;;;;;;2.46;78.78;91974.34;4897511;29;20021;-75
2024/04/22 04:36:00;;;;;;;1.15;0.80;;;;;;;2.48;80.26;91974.88;4896760;29;20402;-75
2024/04/22 04:38:26;;;;;;;0.63;0.63;;;;;;;2.49;77.90;91968.66;4922549;29;20014;-75
2024/04/22 04:40:52;;;;;;;0.57;0.57;;;;;;;2.54;79.66;91966.09;4929694;29;20356;-75
2024/04/22 04:43:17;;;;;;;1.23;0.60;;;;;;;2.58;73.35;91969.75;4930904;29;20235;-75
2024/04/22 04:45:44;;;;;;;1.95;1.10;;;;;;;2.61;72.82;91983.97;4924742;29;20609;-75
2024/04/22 04:48:10;;;;;;;0.65;0.65;;;;;;;2.84;74.23;91965.50;4897988;29;20026;-78
2024/04/22 04:50:39;;;;;;;2.00;1.08;;;;;;;2.70;73.63;91982.47;4926275;29;20452;-77
2024/04/22 04:53:05;;;;;;;0.60;0.60;;;;;;;2.66;76.86;91986.59;4926127;29;20010;-80
2024/04/22 04:55:30;;;;;;;1.30;0.90;;;;;;;2.64;77.56;91981.69;4930190;29;20017;-80
2024/04/22 04:57:57;;;;;;;0.60;0.60;;;;;;;2.56;75.21;91976.19;4898583;29;20036;-79
2024/04/22 05:00:23;;;;;;;0.70;0.70;;;;;;;2.59;76.93;91983.44;4897918;29;20030;-79
2024/04/22 05:02:48;;;;;;;0.50;0.50;;;;;;;2.60;77.58;91988.38;4924157;29;20045;-79
2024/04/22 05:05:14;;;;;;;0.70;0.70;;;;;;;2.64;79.35;91983.50;4908341;29;20022;-78
2024/04/22 05:07:39;;;;;;;0.68;0.68;;;;;;;2.87;74.19;91982.31;4942704;29;20064;-78
2024/04/22 05:10:06;;;;;;;0.60;0.60;;;;;;;2.76;79.64;91980.72;4927553;29;20025;-77
2024/04/22 05:12:31;;;;;;;1.00;0.82;;;;;;;2.76;77.83;91980.72;4926341;29;20042;-78
2024/04/22 05:14:57;;;;;;;0.63;0.63;;;;;;;2.75;77.10;91976.56;4903852;29;20432;-78
2024/04/22 05:17:22;;;;;;;0.60;0.60;;;;;;;2.67;70.18;91977.81;4928627;29;20024;-78
2024/04/22 05:19:48;;;;;;;1.38;0.90;;;;;;;2.63;71.36;91974.94;4934611;29;20006;-77
2024/04/22 05:22:14;;;;;;;1.13;0.70;;;;;;;2.87;65.67;91977.16;4930049;29;20014;-78
2024/04/22 05:24:39;;;;;;;0.70;0.70;;;;;;;2.81;72.77;91978.91;4908506;29;20014;-77
2024/04/22 05:27:05;;;;;;;0.73;0.73;;;;;;;2.77;75.00;91979.66;4931761;29;20029;-80
2024/04/22 05:29:31;;;;;;;0.93;0.75;;;;;;;2.98;75.97;91976.16;4912720;29;20010;-78
2024/04/22 05:31:58;;;;;;;1.33;0.80;;;;;;;2.82;80.27;91977.13;4930200;29;20042;-77
2024/04/22 05:37:08;;;;;;;2.05;0.73;;;;;;;2.74;91.36;91977.59;4948547;29;20092;-77
2024/04/22 05:39:34;;;;;;;0.63;0.63;;;;;;;2.80;90.34;91982.53;4912123;29;20017;-78
2024/04/22 05:42:00;;;;;;;0.68;0.68;;;;;;;2.69;92.08;91984.28;4918421;29;20018;-78
2024/04/22 05:44:25;;;;;;;1.75;0.90;;;;;;;2.57;92.83;91975.97;4913284;29;20010;-78
2024/04/22 05:46:51;;;;;;;0.57;0.57;;;;;;;2.97;86.16;91972.00;4903944;29;20010;-79
2024/04/22 05:49:16;;;;;;;0.55;0.55;;;;;;;2.98;84.90;91965.81;4930026;29;20454;-77
2024/04/22 05:51:42;;;;;;;0.70;0.70;;;;;;;2.76;86.68;91983.28;4929341;29;20021;-78
2024/04/22 05:54:09;;;;;;;0.68;0.68;;;;;;;2.71;87.64;91984.03;4929762;29;20355;-78
2024/04/22 05:56:37;;;;;;;2.00;1.10;;;;;;;2.73;93.33;91983.81;4920844;29;20010;-78
2024/04/22 05:59:04;;;;;;;1.08;0.73;;;;;;;2.66;88.60;91982.22;4903675;29;20718;-78
2024/04/22 06:01:30;;;;;;;0.60;0.60;;;;;;;2.77;79.48;91969.31;4927616;29;20022;-79
2024/04/22 06:03:56;;;;;;;1.13;0.82;;;;;;;2.73;84.52;91979.41;4899748;29;20623;-79
2024/04/22 06:06:21;;;;;;;1.30;0.88;;;;;;;2.98;76.50;91971.00;4877466;29;20022;-79
2024/04/22 06:08:47;;;;;;;0.65;0.65;;;;;;;2.94;72.30;91985.44;4894382;29;20345;-79
2024/04/22 06:11:13;;;;;;;0.70;0.70;;;;;;;2.95;72.15;91988.81;4923219;29;20017;-79
2024/04/22 06:13:39;;;;;;;0.60;0.60;;;;;;;2.87;67.80;91974.56;4927646;29;20010;-78
2024/04/22 06:16:06;;;;;;;0.70;0.70;;;;;;;2.95;74.12;91981.06;4906383;29;20014;-79
2024/04/22 06:18:31;;;;;;;0.63;0.63;;;;;;;3.01;70.92;91987.81;4914650;29;20014;-78
2024/04/22 06:20:57;;;;;;;0.63;0.63;;;;;;;2.90;72.23;91980.03;4929773;29;20010;-79
2024/04/22 06:23:23;;;;;;;0.70;0.70;;;;;;;2.95;70.11;91992.19;4928129;29;21288;-80
2024/04/22 06:25:48;;;;;;;1.13;0.73;;;;;;;2.95;71.29;91991.41;4875775;29;20014;-80
2024/04/22 06:28:14;;;;;;;2.78;0.60;;;;;;;3.00;71.09;91986.28;4928056;29;20026;-81
2024/04/22 06:30:40;;;;;;;1.13;0.77;;;;;;;3.20;64.53;91982.97;4904136;29;20100;-80
2024/04/22 06:33:05;;;;;;;0.85;0.82;;;;;;;3.09;69.12;91993.28;4929394;29;20032;-79
2024/04/22 06:35:31;;;;;;;0.60;0.60;;;;;;;3.12;68.31;91992.78;4927399;29;20014;-79
2024/04/22 06:37:57;;;;;;;0.68;0.60;;;;;;;3.20;66.46;92001.88;4929805;29;20021;-81
2024/04/22 06:40:22;;;;;;;0.85;0.80;;;;;;;3.31;66.15;91995.72;4927896;29;20010;-80
2024/04/22 06:42:48;;;;;;;0.95;0.85;;;;;;;3.29;63.10;91999.59;4932277;29;20017;-79
2024/04/22 06:45:14;;;;;;;0.80;0.75;;;;;;;3.22;65.28;91994.66;4888449;29;20009;-79
2024/04/22 06:47:39;;;;;;;0.70;0.70;;;;;;;3.23;64.23;91998.00;4938155;29;20010;-79
2024/04/22 06:50:05;;;;;;;0.55;0.55;;;;;;;3.25;63.52;91999.31;4938377;29;20022;-79
2024/04/22 06:52:31;;;;;;;0.70;0.60;;;;;;;3.19;63.63;92002.91;4927225;29;20020;-79
2024/04/22 06:54:56;;;;;;;0.60;0.60;;;;;;;3.25;67.67;91995.94;4913253;29;20472;-79
2024/04/22 06:57:22;;;;;;;0.98;0.80;;;;;;;3.15;64.99;91996.66;4909243;29;20009;-80
2024/04/22 06:59:48;;;;;;;0.70;0.70;;;;;;;3.15;67.18;91991.50;4915068;29;20017;-79
2024/04/22 07:02:13;;;;;;;0.60;0.60;;;;;;;3.19;64.84;91996.94;4935991;29;20038;-79
2024/04/22 07:04:39;;;;;;;2.05;0.70;;;;;;;3.28;64.88;91990.25;4935047;29;20040;-79
2024/04/22 07:07:04;;;;;;;0.68;0.68;;;;;;;3.32;65.81;91994.66;4935683;29;21055;-81
2024/04/22 07:09:30;;;;;;;0.50;0.50;;;;;;;3.35;63.30;91995.97;4881553;29;20652;-80
2024/04/22 07:11:55;;;;;;;0.85;0.70;;;;;;;3.31;65.52;91987.16;4936258;29;20010;-79
2024/04/22 07:14:22;;;;;;;0.85;0.70;;;;;;;3.24;69.09;91992.59;4933945;28;20010;-78
2024/04/22 07:16:55;;;;;;;0.57;0.57;;;;;;;3.22;66.57;91996.44;4875667;29;20353;-79
2024/04/22 07:19:21;;;;;;;1.25;0.90;;;;;;;3.32;66.65;91991.31;4941061;29;20018;-80
2024/04/22 07:21:47;;;;;;;0.50;0.50;;;;;;;3.44;66.37;91984.09;4913537;29;20021;-79
2024/04/22 07:24:12;;;;;;;2.65;0.80;;;;;;;3.31;68.47;91989.75;4938762;28;20018;-79
2024/04/22 07:26:38;;;;;;;1.10;0.70;;;;;;;3.29;70.24;91984.06;4931698;29;20021;-80
2024/04/22 07:29:04;;;;;;;0.70;0.70;;;;;;;3.43;70.26;91992.91;4933484;29;20036;-79
2024/04/22 07:31:32;;;;;;;0.60;0.60;;;;;;;3.34;70.37;92002.19;4885124;29;20025;-80
2024/04/22 07:33:58;;;;;;;0.60;0.60;;;;;;;3.48;69.49;91998.09;4931550;29;20021;-81
2024/04/22 07:36:24;;;;;;;0.50;0.50;;;;;;;3.64;69.84;91983.38;4928197;29;20456;-82
2024/04/22 07:38:52;;;;;;;1.08;0.82;;;;;;;3.50;72.16;91985.69;4905155;29;20036;-80
2024/04/22 07:41:18;;;;;;;0.60;0.60;;;;;;;3.51;72.67;91987.25;4910546;29;20013;-79
2024/04/22 07:43:43;;;;;;;0.75;0.70;;;;;;;3.52;71.84;92000.97;4902485;29;20010;-78
2024/04/22 07:46:09;;;;;;;0.70;0.70;;;;;;;3.58;73.07;91978.44;4910354;29;20363;-79
2024/04/22 07:48:34;;;;;;;0.65;0.65;;;;;;;3.51;71.82;91995.00;4929483;29;20153;-79
2024/04/22 07:51:03;;;;;;;1.90;1.00;;;;;;;3.49;73.90;91986.72;4928825;29;20376;-79
2024/04/22 07:53:29;;;;;;;0.88;0.77;;;;;;;3.51;75.82;91989.84;4938459;28;20013;-79
2024/04/22 07:55:55;;;;;;;0.90;0.80;;;;;;;3.55;76.91;91985.69;4910373;29;20021;-79
2024/04/22 07:58:21;;;;;;;0.60;0.60;;;;;;;3.55;71.32;91977.91;4901749;29;20041;-79
2024/04/22 08:00:47;;;;;;;3.67;0.80;;;;;;;3.52;75.08;91970.66;4904888;29;20025;-79
2024/04/22 08:03:13;;;;;;;1.05;0.60;;;;;;;3.64;77.00;91980.03;4928090;29;20006;-78
2024/04/22 08:05:39;;;;;;;0.60;0.60;;;;;;;3.71;78.80;91963.19;4908568;29;20046;-78
2024/04/22 08:08:07;;;;;;;0.60;0.60;;;;;;;3.89;75.72;91955.97;4926495;29;20087;-79
2024/04/22 08:10:33;;;;;;;0.77;0.70;;;;;;;3.74;76.11;91962.69;4908875;29;20010;-80
2024/04/22 08:12:58;;;;;;;1.17;0.77;;;;;;;3.75;76.19;91963.47;4910519;29;20020;-80
2024/04/22 08:15:24;;;;;;;0.80;0.80;;;;;;;3.77;74.50;91961.41;4924053;28;20036;-79
2024/04/22 08:17:50;;;;;;;1.45;0.70;;;;;;;3.83;73.58;91965.56;4928008;29;20006;-81
2024/04/22 08:20:15;;;;;;;0.75;0.70;;;;;;;3.79;72.65;91955.97;4900677;29;20033;-81
2024/04/22 08:22:41;;;;;;;0.77;0.77;;;;;;;3.88;76.02;91972.56;4900858;29;20024;-81
2024/04/22 08:25:07;;;;;;;0.63;0.60;;;;;;;3.99;72.24;91960.41;4926452;29;20006;-79
2024/04/22 08:27:32;;;;;;;0.75;0.68;;;;;;;4.04;71.97;91960.41;4911086;29;20474;-79
2024/04/22 08:29:58;;;;;;;1.02;0.80;;;;;;;4.07;66.56;91965.06;4915794;29;20050;-79
2024/04/22 08:32:24;;;;;;;1.20;0.80;;;;;;;4.10;68.48;91951.59;4933658;29;20028;-79
2024/04/22 08:34:50;;;;;;;0.60;0.60;;;;;;;4.17;68.30;91957.31;4930989;29;20113;-78
2024/04/22 08:37:16;;;;;;;0.80;0.80;;;;;;;4.19;68.90;91952.63;4925905;29;20092;-79
2024/04/22 08:39:43;;;;;;;0.73;0.70;;;;;;;4.11;67.81;91955.75;4934905;29;20010;-79
2024/04/22 08:42:17;;;;;;;1.38;0.90;;;;;;;4.29;70.06;91954.44;4904712;29;20042;-78
2024/04/22 08:44:43;;;;;;;1.17;0.90;;;;;;;4.29;71.82;91952.63;4935062;29;20025;-77
2024/04/22 08:47:09;;;;;;;0.60;0.60;;;;;;;4.38;71.00;91950.28;4947383;29;20618;-79
2024/04/22 08:49:35;;;;;;;0.95;0.80;;;;;;;4.40;69.05;91942.25;4879708;29;20021;-79
2024/04/22 08:52:02;;;;;;;1.65;0.80;;;;;;;4.49;67.57;91962.19;4916583;29;20010;-78
2024/04/22 08:54:29;;;;;;;0.95;0.70;;;;;;;4.51;68.73;91959.34;4932255;29;20475;-79
2024/04/22 08:56:55;;;;;;;0.50;0.50;;;;;;;4.65;66.46;91962.94;4928072;29;20025;-79
2024/04/22 08:59:21;;;;;;;1.00;0.70;;;;;;;4.80;68.16;91955.16;4903853;29;20010;-78
2024/04/22 09:02:01;;;;;;;1.20;0.68;;;;;;;4.94;68.57;91952.78;4907624;29;20780;-79
2024/04/22 09:04:27;;;;;;;1.38;0.82;;;;;;;5.00;67.79;91954.31;4906175;29;20021;-79
2024/04/22 09:06:52;;;;;;;1.05;0.80;;;;;;;5.11;65.23;91962.84;4901432;29;20503;-79
2024/04/22 09:09:18;;;;;;;1.77;0.90;;;;;;;5.10;67.11;91956.09;4900947;29;20014;-79
2024/04/22 09:11:50;;;;;;;0.98;0.80;;;;;;;5.10;63.39;91960.50;4934456;29;20002;-79
2024/04/22 09:14:16;;;;;;;0.70;0.70;;;;;;;5.25;63.14;91960.47;4930569;29;20042;-79
2024/04/22 09:16:42;;;;;;;0.75;0.70;;;;;;;5.33;65.51;91964.31;4935040;29;20024;-79
2024/04/22 09:19:08;;;;;;;1.88;0.98;;;;;;;5.40;65.92;91970.00;4906146;29;20010;-79
2024/04/22 09:21:37;;;;;;;0.60;0.60;;;;;;;5.49;60.96;91965.78;4903183;29;20021;-79
2024/04/22 09:24:06;;;;;;;0.80;0.70;;;;;;;5.44;59.92;91971.00;4925548;29;20092;-78
2024/04/22 09:26:35;;;;;;;1.17;0.70;;;;;;;5.36;62.87;91966.41;4919275;29;20013;-79
2024/04/22 09:29:03;;;;;;;1.75;1.02;;;;;;;5.46;63.35;91963.75;4920670;29;20084;-79
2024/04/22 09:31:33;;;;;;;1.17;0.68;;;;;;;5.52;64.68;91962.69;4924967;29;20009;-79
2024/04/22 09:34:01;;;;;;;0.82;0.70;;;;;;;5.44;62.94;91960.63;4922981;29;20029;-79
2024/04/22 09:36:28;;;;;;;1.15;0.88;;;;;;;5.54;67.40;91958.00;4898037;29;20014;-79
2024/04/22 09:38:56;;;;;;;0.68;0.60;;;;;;;5.62;63.66;91965.22;4924016;29;20026;-78
2024/04/22 09:41:25;;;;;;;0.68;0.68;;;;;;;5.74;63.71;91964.91;4923829;29;20087;-78
2024/04/22 09:43:52;;;;;;;0.70;0.70;;;;;;;5.95;59.65;91965.56;4897975;29;20014;-79
2024/04/22 09:46:18;;;;;;;1.20;0.93;;;;;;;5.92;59.99;91966.09;4896332;29;20025;-79
2024/04/22 09:48:45;;;;;;;0.60;0.60;;;;;;;5.86;58.59;91959.38;4929996;29;20069;-82
2024/04/22 09:51:11;;;;;;;1.08;0.68;;;;;;;5.78;59.58;91965.91;4925434;29;20013;-80
2024/04/22 09:53:39;;;;;;;1.40;0.90;;;;;;;5.70;61.24;91963.13;4938231;28;20041;-80
2024/04/22 09:56:09;;;;;;;2.78;1.20;;;;;;;5.79;60.76;91949.28;4911732;29;20498;-80
2024/04/22 09:58:36;;;;;;;0.70;0.70;;;;;;;5.94;59.62;91952.81;4951280;29;20371;-79
2024/04/22 10:01:02;;;;;;;1.40;0.80;;;;;;;5.95;63.30;91946.63;4943725;29;20010;-79
2024/04/22 10:03:29;;;;;;;0.60;0.60;;;;;;;6.17;61.59;91962.56;4936204;29;20379;-79
2024/04/22 10:05:59;;;;;;;1.90;0.60;;;;;;;6.00;57.68;91962.94;4927364;29;20017;-80
2024/04/22 10:08:28;;;;;;;0.73;0.70;;;;;;;5.75;58.81;91965.69;4907802;29;20025;-78
2024/04/22 10:11:07;;;;;;;1.00;0.88;;;;;;;5.81;60.50;91955.00;4877825;29;20333;-79
2024/04/22 10:13:32;;;;;;;0.70;0.65;;;;;;;5.85;61.40;91955.22;4930143;29;20014;-79
2024/04/22 10:15:58;;;;;;;1.08;0.70;;;;;;;5.86;59.66;91966.41;4932654;29;20090;-80
2024/04/22 10:18:24;;;;;;;0.82;0.70;;;;;;;5.93;61.17;91962.44;4888672;29;20010;-80
2024/04/22 10:20:51;;;;;;;0.65;0.65;;;;;;;5.84;62.06;91964.84;4913234;29;20024;-80
2024/04/22 10:23:17;;;;;;;1.30;0.80;;;;;;;5.79;61.83;91977.84;4910357;29;20010;-79
2024/04/22 10:25:43;;;;;;;4.63;0.70;;;;;;;5.90;59.94;91963.00;4929032;29;20016;-79
2024/04/22 10:28:09;;;;;;;0.95;0.70;;;;;;;5.73;67.65;91967.75;4897173;29;20010;-79
2024/04/22 10:30:36;;;;;;;0.80;0.80;;;;;;;5.79;63.57;91964.88;4913339;29;20017;-80
2024/04/22 10:33:03;;;;;;;0.75;0.73;;;;;;;5.83;60.92;91972.88;4935301;29;20014;-80
2024/04/22 10:35:29;;;;;;;0.80;0.80;;;;;;;5.83;59.18;91962.50;4915380;29;20361;-80
2024/04/22 10:37:56;;;;;;;1.27;1.13;;;;;;;5.96;64.34;91961.91;4946076;29;20009;-79
2024/04/22 10:40:21;;;;;;;1.63;1.00;;;;;;;6.04;63.28;91961.34;4929161;29;20021;-80
2024/04/22 10:42:47;;;;;;;0.68;0.68;;;;;;;6.16;66.01;91968.03;4911365;29;20452;-80
2024/04/22 10:45:13;;;;;;;1.17;0.80;;;;;;;6.11;59.08;91974.03;4923892;29;20050;-79
2024/04/22 10:47:40;;;;;;;1.05;0.77;;;;;;;6.09;60.01;91970.94;4922360;29;20405;-80
2024/04/22 10:50:19;;;;;;;1.02;0.82;;;;;;;6.24;63.03;91963.03;4923819;29;20387;-80
2024/04/22 10:52:45;;;;;;;3.03;0.90;;;;;;;6.37;62.79;91966.03;4873632;29;20340;-80
2024/04/22 10:55:11;;;;;;;0.60;0.60;;;;;;;6.51;59.90;91963.59;4894116;29;20373;-80
2024/04/22 10:57:37;;;;;;;11.30;1.33;;;;;;;6.50;59.06;91959.44;4916226;29;20010;-80
2024/04/22 11:00:05;;;;;;;1.05;0.70;;;;;;;6.63;59.91;91958.81;4925245;29;20013;-80
2024/04/22 11:02:34;;;;;;;1.35;0.90;;;;;;;6.64;63.11;91948.16;4926828;29;20336;-80
2024/04/22 11:05:01;;;;;;;5.07;1.35;;;;;;;6.36;60.17;91957.47;4927917;29;20014;-80
2024/04/22 11:07:30;;;;;;;6.78;0.93;;;;;;;6.45;60.16;91947.28;4927008;29;20013;-80
2024/04/22 11:09:59;;;;;;;1.48;1.00;;;;;;;6.37;61.04;91951.25;4926202;29;20016;-80
2024/04/22 11:12:26;;;;;;;1.55;0.80;;;;;;;6.39;61.65;91953.56;4902505;29;20006;-80
2024/04/22 11:14:52;;;;;;;0.80;0.80;;;;;;;6.43;57.67;91954.56;4926410;29;20546;-80
2024/04/22 11:17:21;;;;;;;1.00;0.80;;;;;;;6.70;57.98;91946.25;4927014;29;20046;-79
2024/04/22 11:19:47;;;;;;;4.70;1.17;;;;;;;6.79;57.19;91947.22;4926857;29;20378;-79
2024/04/22 11:22:13;;;;;;;2.22;0.85;;;;;;;6.67;58.23;91946.81;4913431;29;20043;-80
2024/04/22 11:24:38;;;;;;;2.10;0.80;;;;;;;7.08;61.21;91944.56;4932940;29;20050;-80
2024/04/22 11:27:05;;;;;;;3.78;0.90;;;;;;;7.27;61.63;91934.22;4905557;29;20046;-80
2024/04/22 11:29:30;;;;;;;1.35;0.90;;;;;;;7.07;55.51;91932.63;4934927;29;20014;-80
2024/04/22 11:31:57;;;;;;;0.93;0.70;;;;;;;6.98;55.66;91928.28;4893270;29;20467;-80
2024/04/22 11:34:23;;;;;;;1.25;0.88;;;;;;;6.66;60.61;91934.84;4927968;29;20092;-80
2024/04/22 11:36:56;;;;;;;1.08;0.75;;;;;;;6.91;59.67;91940.84;4927193;29;20352;-80
2024/04/22 11:39:24;;;;;;;0.68;0.68;;;;;;;7.07;58.20;91934.44;4927007;29;20333;-80
2024/04/22 11:41:50;;;;;;;1.23;0.70;;;;;;;7.23;56.09;91935.06;4924405;29;20010;-79
2024/04/22 11:44:15;;;;;;;0.70;0.63;;;;;;;7.03;53.31;91936.06;4927864;29;20014;-80
2024/04/22 11:46:41;;;;;;;4.32;1.77;;;;;;;6.91;55.93;91933.03;4939113;29;20396;-80